»·PEaware :: N299CD KTUS-KPHX

N299CD :: KTUS-KPHX

FLIGHT INFORMATION

Flight Status: Arrived
Operator: Privately registered:
United States
More flights under this callsign
Pilot: Anonymous 30216 (30216)
Aircraft: BEECH AIRCRAFT BONANZA
(BE36)
More flights by this aircraft type
Origin: KTUS Tucson Intl
United States
Destination: KPHX Phoenix Sky Harbor Intl
United States
More flights between these airports :: More routes between these airports
Route: TUS V105 PXR
File this flight plan on PilotEdge
Remarks:
Altitude:
(Current/Filed)
8,000ft
Speed:
(Current/Filed)
150kts
Departed: 12-Sep-20 11:19 AM
Arrived: 12-Sep-20 12:16 PM
Distance/Time
Traveled:
96nm/0:57
Distance/Time
To Go:
Arrived

Flight Plot

Page will automatically refresh every two minutes.

Flight plan parsing failed; only flown route is shown


Map Options




Map Legend


Flown Route
Filed Route
Departure Airport
Arrival Airport
Navaid (VOR, NDB)
Fix

Horizontal Profiles

Position Reports

Time Latitude Longitude Heading Altitude Ground
Speed
12-Sep-20 10:59 32.118503 -110.936346 48 2602ft 0kts
12-Sep-20 11:00 32.118503 -110.936346 48 2602ft 0kts
12-Sep-20 11:01 32.118503 -110.936346 48 2602ft 0kts
12-Sep-20 11:02 32.118503 -110.936346 48 2602ft 0kts
12-Sep-20 11:03 32.118503 -110.936346 48 2602ft 0kts
12-Sep-20 11:04 32.118503 -110.936346 48 2602ft 0kts
12-Sep-20 11:05 32.118253 -110.937093 203 2601ft 2kts
12-Sep-20 11:06 32.117608 -110.938028 221 2601ft 5kts
12-Sep-20 11:07 32.118392 -110.939573 315 2599ft 6kts
12-Sep-20 11:08 32.120088 -110.941539 316 2592ft 10kts
12-Sep-20 11:09 32.122417 -110.944259 314 2582ft 12kts
12-Sep-20 11:11 32.124061 -110.946359 266 2575ft 3kts
12-Sep-20 11:12 32.123990 -110.946686 252 2574ft 0kts
12-Sep-20 11:13 32.123990 -110.946686 252 2574ft 0kts
12-Sep-20 11:14 32.123990 -110.946686 252 2574ft 0kts
12-Sep-20 11:15 32.123990 -110.946686 252 2574ft 0kts
12-Sep-20 11:16 32.123990 -110.946686 252 2574ft 0kts
12-Sep-20 11:17 32.123990 -110.946686 252 2574ft 0kts
12-Sep-20 11:18 32.123301 -110.947564 183 2574ft 15kts
12-Sep-20 11:19 32.110503 -110.931099 130 3103ft 96kts
12-Sep-20 11:20 32.091026 -110.904918 130 3803ft 134kts
12-Sep-20 11:21 32.064845 -110.869463 130 4527ft 149kts
12-Sep-20 11:22 32.037590 -110.832475 131 5230ft 151kts
12-Sep-20 11:23 32.016834 -110.853174 298 5903ft 147kts
12-Sep-20 11:24 32.036738 -110.895277 300 6602ft 146kts
12-Sep-20 11:25 32.069821 -110.917317 346 7295ft 143kts
12-Sep-20 11:25 32.102100 -110.926188 346 7876ft 142kts
12-Sep-20 11:27 32.125298 -110.970769 295 8681ft 141kts
12-Sep-20 11:28 32.142024 -111.011521 297 9369ft 138kts
12-Sep-20 11:28 32.157158 -111.045048 303 9759ft 148kts
12-Sep-20 11:30 32.184158 -111.097535 301 9758ft 168kts
12-Sep-20 11:31 32.208532 -111.145728 301 9757ft 172kts
12-Sep-20 11:31 32.229057 -111.186455 301 9757ft 173kts
12-Sep-20 11:32 32.256561 -111.241046 301 8399ft 200kts
12-Sep-20 11:34 32.288272 -111.304258 301 7981ft 180kts
12-Sep-20 11:34 32.309411 -111.346407 301 7954ft 176kts
12-Sep-20 11:35 32.334310 -111.396083 301 7945ft 175kts
12-Sep-20 11:36 32.359087 -111.445597 301 7944ft 175kts
12-Sep-20 11:37 32.384395 -111.494682 316 7928ft 175kts
12-Sep-20 11:38 32.423986 -111.527778 326 7943ft 174kts
12-Sep-20 11:39 32.463687 -111.560322 326 7945ft 174kts
12-Sep-20 11:40 32.503622 -111.593110 326 7942ft 174kts
12-Sep-20 11:41 32.543276 -111.625700 326 7945ft 174kts
12-Sep-20 11:42 32.583038 -111.658375 325 7944ft 174kts
12-Sep-20 11:43 32.622829 -111.690884 325 7944ft 174kts
12-Sep-20 11:44 32.662679 -111.723697 325 7944ft 174kts
12-Sep-20 11:45 32.702325 -111.756415 325 7945ft 174kts
12-Sep-20 11:46 32.742161 -111.789338 325 7948ft 174kts
12-Sep-20 11:47 32.781803 -111.822136 325 7944ft 174kts
12-Sep-20 11:48 32.821554 -111.855055 325 7945ft 174kts
12-Sep-20 11:49 32.861242 -111.887965 325 7943ft 174kts
12-Sep-20 11:50 32.901117 -111.919285 320 7937ft 162kts
12-Sep-20 11:51 32.933175 -111.951688 320 7943ft 145kts
12-Sep-20 11:52 32.963357 -111.982277 320 7946ft 141kts
12-Sep-20 11:53 32.992089 -112.011408 320 8046ft 137kts
12-Sep-20 11:54 33.021254 -112.040936 320 8045ft 139kts
12-Sep-20 11:55 33.050781 -112.070841 320 8045ft 139kts
12-Sep-20 11:56 33.080183 -112.100593 320 8045ft 140kts
12-Sep-20 11:57 33.112633 -112.133309 320 8051ft 167kts
12-Sep-20 11:58 33.149006 -112.169797 320 8046ft 173kts
12-Sep-20 11:59 33.186110 -112.207010 320 8045ft 174kts
12-Sep-20 12:00 33.223232 -112.244239 320 8047ft 174kts
12-Sep-20 12:01 33.260354 -112.281447 320 8045ft 174kts
12-Sep-20 12:02 33.297138 -112.318322 320 8038ft 164kts
12-Sep-20 12:03 33.332076 -112.338982 19 7850ft 145kts
12-Sep-20 12:04 33.369457 -112.322099 20 7161ft 142kts
12-Sep-20 12:05 33.405939 -112.305490 20 6456ft 139kts
12-Sep-20 12:06 33.427913 -112.275779 99 5747ft 139kts
12-Sep-20 12:07 33.426244 -112.231415 80 5037ft 132kts
12-Sep-20 12:08 33.428641 -112.187573 88 4338ft 132kts
12-Sep-20 12:09 33.428828 -112.148714 88 3548ft 107kts
12-Sep-20 12:10 33.428828 -112.120105 88 2954ft 87kts
12-Sep-20 12:11 33.428869 -112.092909 90 2181ft 94kts
12-Sep-20 12:12 33.429485 -112.067426 89 1838ft 97kts
12-Sep-20 12:13 33.428890 -112.041526 88 1421ft 83kts
12-Sep-20 12:14 33.428930 -112.021470 88 1113ft 47kts
12-Sep-20 12:15 33.428434 -112.016704 167 1116ft 0kts

Navigation Log

Ident Type
Flight plan parsing failed, navigation log unavailable